createdAt,value
2022-09-28T00:01:26.407Z,12.51
2022-09-28T00:03:57.493Z,12.35
2022-09-28T00:06:28.640Z,12.39
2022-09-28T00:08:57.945Z,12.14
2022-09-28T00:11:28.099Z,12.39
2022-09-28T00:14:02.347Z,12.41
2022-09-28T00:16:33.793Z,12.39
2022-09-28T00:19:03.059Z,12.37
2022-09-28T00:21:34.179Z,12.33
2022-09-28T00:24:15.130Z,12.32
2022-09-28T00:26:47.724Z,12.33
2022-09-28T00:29:24.423Z,12.25
2022-09-28T00:31:57.273Z,12.17
2022-09-28T00:34:25.541Z,12.21
2022-09-28T00:36:53.806Z,12.24
2022-09-28T00:39:22.044Z,12.25
2022-09-28T00:41:50.298Z,12.26
2022-09-28T00:44:44.482Z,12.03
2022-09-28T00:47:39.569Z,12.11
2022-09-28T00:50:16.376Z,11.90
2022-09-28T00:52:50.003Z,11.97
2022-09-28T00:55:24.991Z,12.01
2022-09-28T00:57:58.381Z,12.20
2022-09-28T01:00:28.977Z,12.29
2022-09-28T01:02:57.952Z,12.34
2022-09-28T01:05:26.915Z,12.37
2022-09-28T01:07:58.048Z,12.41
2022-09-28T01:10:26.882Z,12.42
2022-09-28T01:12:56.398Z,12.48
2022-09-28T01:15:29.029Z,12.42
2022-09-28T01:18:11.660Z,12.12
2022-09-28T01:21:05.439Z,12.22
2022-09-28T01:24:26.754Z,12.37
2022-09-28T01:27:07.328Z,12.32
2022-09-28T01:29:52.350Z,12.38
2022-09-28T01:32:33.220Z,12.34
2022-09-28T01:35:07.827Z,12.30
2022-09-28T01:37:44.976Z,12.32
2022-09-28T01:40:15.631Z,12.37
2022-09-28T01:42:48.356Z,12.36
2022-09-28T01:45:24.168Z,12.47
2022-09-28T01:47:55.312Z,12.53
2022-09-28T01:50:26.959Z,12.61
2022-09-28T01:53:00.719Z,12.61
2022-09-28T01:55:34.029Z,12.61
2022-09-28T01:58:12.968Z,12.58
2022-09-28T02:00:47.071Z,12.65
2022-09-28T02:03:21.730Z,12.66
2022-09-28T02:06:00.678Z,12.70
2022-09-28T02:08:34.603Z,12.68
2022-09-28T02:11:10.739Z,12.69
2022-09-28T02:13:44.250Z,12.65
2022-09-28T02:16:21.023Z,12.64
2022-09-28T02:18:51.710Z,12.60
2022-09-28T02:21:27.914Z,12.44
2022-09-28T02:24:01.056Z,12.62
2022-09-28T02:26:33.575Z,12.58
2022-09-28T02:29:03.463Z,12.63
2022-09-28T02:31:32.939Z,12.63
2022-09-28T02:34:01.726Z,12.65
2022-09-28T02:36:31.863Z,12.66
2022-09-28T02:39:01.200Z,12.65
2022-09-28T02:41:43.344Z,12.69
2022-09-28T02:44:31.703Z,12.72
2022-09-28T02:47:06.376Z,12.72
2022-09-28T02:49:45.652Z,12.78
2022-09-28T02:52:33.946Z,12.83
2022-09-28T02:55:21.282Z,12.76
2022-09-28T02:58:12.218Z,12.08
2022-09-28T03:00:48.174Z,12.81
2022-09-28T03:03:23.408Z,12.67
2022-09-28T03:06:01.343Z,12.85
2022-09-28T03:08:40.409Z,12.41
2022-09-28T03:11:17.902Z,12.88
2022-09-28T03:13:49.577Z,12.82
2022-09-28T03:16:21.669Z,12.62
2022-09-28T03:18:51.171Z,12.77
2022-09-28T03:21:19.656Z,12.77
2022-09-28T03:23:48.376Z,12.77
2022-09-28T03:26:19.918Z,12.83
2022-09-28T03:28:48.296Z,12.73
2022-09-28T03:31:24.586Z,12.72
2022-09-28T03:33:53.337Z,12.77
2022-09-28T03:36:21.557Z,12.84
2022-09-28T03:38:53.230Z,12.85
2022-09-28T03:41:21.538Z,12.73
2022-09-28T03:43:49.875Z,12.78
2022-09-28T03:46:18.424Z,12.83
2022-09-28T03:48:52.453Z,12.83
2022-09-28T03:51:20.742Z,12.92
2022-09-28T03:53:49.024Z,12.92
2022-09-28T03:56:17.830Z,12.89
2022-09-28T03:58:46.171Z,12.84
2022-09-28T04:01:17.910Z,12.92
2022-09-28T04:03:49.082Z,12.97
2022-09-28T04:06:19.287Z,12.96
2022-09-28T04:08:47.587Z,12.96
2022-09-28T04:11:15.885Z,12.97
2022-09-28T04:13:44.635Z,12.94
2022-09-28T04:16:15.839Z,12.85
2022-09-28T04:18:50.097Z,12.78
2022-09-28T04:21:38.855Z,12.85
2022-09-28T04:24:14.395Z,12.82
2022-09-28T04:26:42.832Z,12.81
2022-09-28T04:29:18.927Z,12.79
2022-09-28T04:31:56.820Z,12.83
2022-09-28T04:34:36.513Z,12.85
2022-09-28T04:37:08.100Z,12.90
2022-09-28T04:39:36.540Z,12.89
2022-09-28T04:42:05.576Z,12.93
2022-09-28T04:44:33.915Z,12.92
2022-09-28T04:47:08.049Z,12.94
2022-09-28T04:49:58.012Z,12.99
2022-09-28T04:52:38.788Z,12.98
2022-09-28T04:55:10.391Z,12.98
2022-09-28T04:57:38.843Z,12.92
2022-09-28T05:00:09.579Z,12.96
2022-09-28T05:02:39.305Z,12.94
2022-09-28T05:05:26.665Z,12.92
2022-09-28T05:08:30.894Z,12.94
2022-09-28T05:11:00.538Z,12.94
2022-09-28T05:13:31.746Z,12.92
2022-09-28T05:16:04.977Z,12.93
2022-09-28T05:18:38.126Z,12.95
2022-09-28T05:21:12.766Z,12.91
2022-09-28T05:23:47.641Z,12.97
2022-09-28T05:26:16.270Z,12.96
2022-09-28T05:28:45.299Z,13.01
2022-09-28T05:31:36.849Z,12.84
2022-09-28T05:34:11.238Z,13.01
2022-09-28T05:36:40.286Z,12.95
2022-09-28T05:39:10.679Z,12.85
2022-09-28T05:41:39.234Z,12.80
2022-09-28T05:44:07.512Z,12.85
2022-09-28T05:46:37.341Z,12.78
2022-09-28T05:49:05.806Z,12.74
2022-09-28T05:51:34.310Z,12.52
2022-09-28T05:54:06.013Z,12.67
2022-09-28T05:56:38.822Z,12.75
2022-09-28T05:59:09.000Z,12.23
2022-09-28T06:01:38.431Z,12.29
2022-09-28T06:04:10.105Z,12.00
2022-09-28T06:06:38.876Z,12.36
2022-09-28T06:09:07.180Z,12.37
2022-09-28T06:11:45.488Z,12.23
2022-09-28T06:14:25.213Z,12.24
2022-09-28T06:16:54.584Z,12.39
2022-09-28T06:19:23.862Z,12.53
2022-09-28T06:22:07.691Z,12.33
2022-09-28T06:24:44.246Z,12.15
2022-09-28T06:27:13.951Z,12.11
2022-09-28T06:29:42.335Z,12.26
2022-09-28T06:32:12.410Z,12.42
2022-09-28T06:34:42.064Z,12.76
2022-09-28T06:37:10.788Z,13.09
2022-09-28T06:39:39.123Z,13.64
2022-09-28T06:42:07.529Z,14.14
2022-09-28T06:45:07.936Z,14.43
2022-09-28T06:48:06.241Z,14.71
2022-09-28T06:50:42.440Z,15.12
2022-09-28T06:53:27.220Z,15.28
2022-09-28T06:56:02.522Z,15.37
2022-09-28T06:58:31.560Z,15.34
2022-09-28T07:01:02.326Z,15.43
2022-09-28T07:03:36.826Z,15.44
2022-09-28T07:06:48.641Z,15.49
2022-09-28T07:09:39.739Z,15.51
2022-09-28T07:12:13.369Z,15.48
2022-09-28T07:15:05.924Z,15.44
2022-09-28T07:17:48.181Z,15.21
2022-09-28T07:20:25.069Z,15.19
2022-09-28T07:22:55.551Z,15.22
2022-09-28T07:25:26.075Z,15.25
2022-09-28T07:28:09.551Z,15.22
2022-09-28T07:31:04.327Z,15.33
2022-09-28T07:33:52.186Z,15.48
2022-09-28T07:36:29.911Z,15.72
2022-09-28T07:38:59.131Z,15.94
2022-09-28T07:41:32.568Z,16.05
2022-09-28T07:44:06.447Z,16.02
2022-09-28T07:46:37.774Z,15.98
2022-09-28T07:49:12.982Z,15.86
2022-09-28T07:51:56.451Z,15.77
2022-09-28T07:54:39.505Z,15.82
2022-09-28T07:57:34.797Z,15.29
2022-09-28T08:00:17.886Z,15.87
2022-09-28T08:02:49.044Z,15.86
2022-09-28T08:05:27.058Z,15.95
2022-09-28T08:07:57.794Z,15.80
2022-09-28T08:10:28.520Z,15.85
2022-09-28T08:13:16.407Z,15.84
2022-09-28T08:16:02.165Z,15.54
2022-09-28T08:18:39.741Z,15.82
2022-09-28T08:21:29.223Z,15.65
2022-09-28T08:23:58.109Z,15.83
2022-09-28T08:26:26.658Z,16.14
2022-09-28T08:28:55.009Z,16.33
2022-09-28T08:31:43.504Z,16.72
2022-09-28T08:34:22.721Z,17.14
2022-09-28T08:37:11.105Z,17.37
2022-09-28T08:39:57.819Z,17.38
2022-09-28T08:42:52.146Z,17.32
2022-09-28T08:45:34.994Z,17.23
2022-09-28T08:48:33.737Z,17.07
2022-09-28T08:51:24.301Z,16.70
2022-09-28T08:54:36.080Z,16.90
2022-09-28T08:57:12.543Z,16.88
2022-09-28T08:59:51.261Z,16.96
2022-09-28T09:02:31.306Z,17.07
2022-09-28T09:05:14.820Z,17.33
2022-09-28T09:08:21.291Z,17.76
2022-09-28T09:10:54.615Z,18.17
2022-09-28T09:14:06.129Z,18.60
2022-09-28T09:16:47.754Z,18.95
2022-09-28T09:19:51.212Z,19.16
2022-09-28T09:22:40.766Z,19.40
2022-09-28T09:25:20.854Z,19.73
2022-09-28T09:28:20.491Z,19.90
2022-09-28T09:31:00.320Z,19.60
2022-09-28T09:33:54.225Z,19.72
2022-09-28T09:37:05.814Z,19.62
2022-09-28T09:40:07.445Z,19.40
2022-09-28T09:43:08.379Z,19.18
2022-09-28T09:46:04.457Z,19.12
2022-09-28T09:48:57.320Z,18.98
2022-09-28T09:51:38.921Z,18.87
2022-09-28T09:54:17.877Z,18.81
2022-09-28T09:56:54.843Z,18.99
2022-09-28T09:59:46.974Z,19.21
2022-09-28T10:02:26.794Z,19.33
2022-09-28T10:05:18.132Z,19.62
2022-09-28T10:07:55.000Z,19.69
2022-09-28T10:10:29.968Z,19.73
2022-09-28T10:13:11.290Z,19.82
2022-09-28T10:15:42.584Z,19.57
2022-09-28T10:18:22.237Z,19.98
2022-09-28T10:21:14.765Z,19.96
2022-09-28T10:24:03.706Z,19.86
2022-09-28T10:26:37.103Z,19.63
2022-09-28T10:29:13.121Z,19.51
2022-09-28T10:31:46.392Z,19.22
2022-09-28T10:34:36.508Z,19.23
2022-09-28T10:37:12.518Z,19.18
2022-09-28T10:40:01.635Z,19.17
2022-09-28T10:42:36.166Z,19.03
2022-09-28T10:45:21.628Z,18.53
2022-09-28T10:47:51.792Z,18.65
2022-09-28T10:50:23.935Z,18.78
2022-09-28T10:53:15.882Z,19.25
2022-09-28T10:56:22.654Z,19.69
2022-09-28T10:58:58.015Z,19.85
2022-09-28T11:01:46.054Z,20.28
2022-09-28T11:04:23.485Z,20.35
2022-09-28T11:06:52.475Z,20.51
2022-09-28T11:09:30.703Z,20.58
2022-09-28T11:12:06.835Z,20.84
2022-09-28T11:14:42.441Z,20.99
2022-09-28T11:17:27.842Z,21.05
2022-09-28T11:20:00.438Z,21.14
2022-09-28T11:22:41.799Z,21.09
2022-09-28T11:25:24.470Z,21.24
2022-09-28T11:28:04.870Z,21.38
2022-09-28T11:30:40.517Z,21.32
2022-09-28T11:33:33.576Z,21.60
2022-09-28T11:36:43.082Z,21.19
2022-09-28T11:39:18.363Z,21.48
2022-09-28T11:42:06.059Z,21.16
2022-09-28T11:44:44.617Z,21.58
2022-09-28T11:47:52.610Z,21.71
2022-09-28T11:50:43.636Z,21.76
2022-09-28T11:53:23.348Z,21.37
2022-09-28T11:56:08.571Z,21.13
2022-09-28T11:58:42.199Z,20.86
2022-09-28T12:01:31.248Z,20.53
2022-09-28T12:04:26.572Z,20.14
2022-09-28T12:07:00.316Z,19.87
2022-09-28T12:09:39.078Z,19.58
2022-09-28T12:12:24.637Z,19.34
2022-09-28T12:14:58.604Z,19.17
2022-09-28T12:17:33.666Z,18.80
2022-09-28T12:20:12.583Z,18.73
2022-09-28T12:22:47.660Z,18.54
2022-09-28T12:25:21.417Z,18.47
2022-09-28T12:27:55.077Z,18.35
2022-09-28T12:30:25.675Z,18.19
2022-09-28T12:32:57.306Z,17.95
2022-09-28T12:35:55.211Z,17.51
2022-09-28T12:39:08.468Z,17.46
2022-09-28T12:41:53.308Z,17.35
2022-09-28T12:44:48.295Z,17.05
2022-09-28T12:47:50.022Z,17.00
2022-09-28T12:50:45.611Z,16.94
2022-09-28T12:53:45.564Z,16.91
2022-09-28T12:56:25.298Z,16.67
2022-09-28T12:59:10.406Z,16.67
2022-09-28T13:02:23.101Z,16.62
2022-09-28T13:05:40.919Z,16.39
2022-09-28T13:08:15.880Z,16.36
2022-09-28T13:10:55.192Z,16.30
2022-09-28T13:13:41.419Z,16.33
2022-09-28T13:16:23.445Z,16.43
2022-09-28T13:19:02.577Z,16.51
2022-09-28T13:21:37.793Z,16.55
2022-09-28T13:24:30.939Z,16.77
2022-09-28T13:27:05.455Z,16.89
2022-09-28T13:29:35.048Z,16.89
2022-09-28T13:32:05.455Z,16.92
2022-09-28T13:34:36.287Z,16.99
2022-09-28T13:37:26.592Z,16.94
2022-09-28T13:39:56.831Z,17.00
2022-09-28T13:42:51.042Z,16.94
2022-09-28T13:45:51.664Z,16.88
2022-09-28T13:48:24.316Z,16.61
2022-09-28T13:51:25.868Z,16.67
2022-09-28T13:54:25.680Z,16.53
2022-09-28T13:57:04.501Z,16.38
2022-09-28T13:59:35.854Z,16.37
2022-09-28T14:02:18.783Z,16.19
2022-09-28T14:04:59.963Z,16.13
2022-09-28T14:07:57.558Z,16.05
2022-09-28T14:10:48.840Z,16.00
2022-09-28T14:13:59.071Z,16.01
2022-09-28T14:16:31.147Z,16.05
2022-09-28T14:19:04.865Z,15.93
2022-09-28T14:22:04.312Z,16.08
2022-09-28T14:25:04.453Z,16.04
2022-09-28T14:28:02.911Z,16.02
2022-09-28T14:30:48.848Z,16.00
2022-09-28T14:33:25.683Z,15.97
2022-09-28T14:35:57.448Z,16.01
2022-09-28T14:38:51.172Z,16.01
2022-09-28T14:41:33.725Z,15.32
2022-09-28T14:44:08.019Z,15.99
2022-09-28T14:46:45.631Z,15.80
2022-09-28T14:49:48.962Z,15.84
2022-09-28T14:52:38.939Z,15.92
2022-09-28T14:55:16.885Z,15.94
2022-09-28T14:57:45.695Z,15.91
2022-09-28T15:00:22.843Z,15.89
2022-09-28T15:02:53.482Z,15.90
2022-09-28T15:05:25.931Z,15.86
2022-09-28T15:07:56.106Z,15.89
2022-09-28T15:10:33.006Z,15.79
2022-09-28T15:13:05.367Z,15.82
2022-09-28T15:15:38.226Z,15.83
2022-09-28T15:18:35.225Z,15.78
2022-09-28T15:21:04.147Z,15.16
2022-09-28T15:23:37.429Z,15.74
2022-09-28T15:26:09.157Z,15.69
2022-09-28T15:28:44.765Z,15.69
2022-09-28T15:31:20.491Z,15.73
2022-09-28T15:34:06.673Z,15.69
2022-09-28T15:36:38.936Z,15.67
2022-09-28T15:39:14.208Z,15.53
2022-09-28T15:41:45.161Z,15.76
2022-09-28T15:44:30.175Z,15.69
2022-09-28T15:47:12.865Z,15.76
2022-09-28T15:49:45.026Z,15.74
2022-09-28T15:52:33.885Z,15.54
2022-09-28T15:55:05.287Z,15.80
2022-09-28T15:57:38.661Z,15.76
2022-09-28T16:00:25.723Z,15.94
2022-09-28T16:03:20.423Z,15.77
2022-09-28T16:05:51.873Z,16.11
2022-09-28T16:08:24.815Z,16.10
2022-09-28T16:10:59.340Z,16.18
2022-09-28T16:13:29.228Z,16.23
2022-09-28T16:16:00.550Z,16.31
2022-09-28T16:18:30.904Z,16.31
2022-09-28T16:21:27.074Z,16.47
2022-09-28T16:23:57.631Z,16.50
2022-09-28T16:26:35.913Z,16.52
2022-09-28T16:29:25.758Z,16.37
2022-09-28T16:31:54.423Z,16.50
2022-09-28T16:34:27.309Z,16.36
2022-09-28T16:36:55.911Z,16.21
2022-09-28T16:39:24.952Z,16.01
2022-09-28T16:41:57.145Z,16.04
2022-09-28T16:44:30.690Z,15.91
2022-09-28T16:47:00.997Z,15.89
2022-09-28T16:49:32.176Z,15.91
2022-09-28T16:52:01.906Z,15.94
2022-09-28T16:54:48.286Z,15.96
2022-09-28T16:57:17.133Z,15.95
2022-09-28T16:59:46.932Z,15.97
2022-09-28T17:02:46.138Z,15.88
2022-09-28T17:05:11.155Z,15.94
2022-09-28T17:07:39.938Z,15.88
2022-09-28T17:10:18.363Z,15.84
2022-09-28T17:12:47.290Z,15.75
2022-09-28T17:15:19.409Z,15.69
2022-09-28T17:17:48.039Z,15.64
2022-09-28T17:20:22.375Z,15.59
2022-09-28T17:22:50.764Z,15.51
2022-09-28T17:25:19.948Z,15.25
2022-09-28T17:27:50.481Z,15.27
2022-09-28T17:30:23.825Z,15.17
2022-09-28T17:32:54.219Z,15.13
2022-09-28T17:35:25.090Z,15.05
2022-09-28T17:37:54.301Z,15.03
2022-09-28T17:40:25.536Z,14.99
2022-09-28T17:42:55.201Z,14.96
2022-09-28T17:45:26.930Z,14.80
2022-09-28T17:47:56.600Z,14.94
2022-09-28T17:50:28.103Z,14.69
2022-09-28T17:52:59.801Z,14.59
2022-09-28T17:55:31.536Z,14.43
2022-09-28T17:58:01.585Z,14.31
2022-09-28T18:00:31.234Z,14.29
2022-09-28T18:03:00.001Z,14.17
2022-09-28T18:05:30.393Z,13.45
2022-09-28T18:07:59.291Z,13.99
2022-09-28T18:10:30.192Z,13.75
2022-09-28T18:12:58.535Z,13.68
2022-09-28T18:15:27.107Z,13.64
2022-09-28T18:17:56.989Z,13.57
2022-09-28T18:20:25.401Z,13.51
2022-09-28T18:22:53.867Z,13.58
2022-09-28T18:25:22.375Z,13.57
2022-09-28T18:27:50.871Z,13.61
2022-09-28T18:30:19.694Z,13.66
2022-09-28T18:32:48.195Z,13.68
2022-09-28T18:35:22.592Z,13.80
2022-09-28T18:37:51.928Z,13.58
2022-09-28T18:40:20.609Z,13.67
2022-09-28T18:42:51.890Z,13.35
2022-09-28T18:45:20.655Z,13.65
2022-09-28T18:47:49.052Z,13.64
2022-09-28T18:50:19.143Z,12.96
2022-09-28T18:52:48.278Z,13.55
2022-09-28T18:55:16.860Z,13.50
2022-09-28T18:57:46.878Z,13.52
2022-09-28T19:00:16.513Z,13.43
2022-09-28T19:02:44.931Z,13.48
2022-09-28T19:05:13.314Z,13.50
2022-09-28T19:07:43.199Z,13.46
2022-09-28T19:10:11.743Z,13.42
2022-09-28T19:12:40.071Z,13.27
2022-09-28T19:15:09.683Z,13.23
2022-09-28T19:17:38.157Z,13.24
2022-09-28T19:20:08.092Z,13.16
2022-09-28T19:22:36.430Z,13.15
2022-09-28T19:25:07.026Z,13.22
2022-09-28T19:27:35.465Z,13.29
2022-09-28T19:30:04.467Z,13.34
2022-09-28T19:32:32.890Z,13.38
2022-09-28T19:35:01.963Z,13.38
2022-09-28T19:37:30.444Z,13.29
2022-09-28T19:39:58.903Z,13.22
2022-09-28T19:42:28.632Z,13.28
2022-09-28T19:44:57.011Z,13.12
2022-09-28T19:47:25.520Z,13.05
2022-09-28T19:49:53.894Z,13.08
2022-09-28T19:52:22.323Z,13.04
2022-09-28T19:54:56.529Z,12.81
2022-09-28T19:57:27.669Z,12.75
2022-09-28T20:00:02.126Z,12.88
2022-09-28T20:02:34.491Z,12.87
2022-09-28T20:05:03.310Z,12.70
2022-09-28T20:07:33.401Z,12.73
2022-09-28T20:10:02.026Z,12.49
2022-09-28T20:12:30.408Z,12.39
2022-09-28T20:15:00.187Z,11.60
2022-09-28T20:17:28.956Z,12.27
2022-09-28T20:19:57.705Z,12.38
2022-09-28T20:22:26.150Z,12.47
2022-09-28T20:24:54.441Z,12.51
2022-09-28T20:27:26.377Z,12.53
2022-09-28T20:29:54.888Z,12.64
2022-09-28T20:32:24.684Z,12.70
2022-09-28T20:34:53.034Z,12.70
2022-09-28T20:37:21.442Z,12.73
2022-09-28T20:39:50.311Z,12.71
2022-09-28T20:42:19.115Z,12.66
2022-09-28T20:44:47.456Z,12.59
2022-09-28T20:47:15.877Z,12.70
2022-09-28T20:49:46.406Z,12.68
2022-09-28T20:52:15.537Z,12.62
2022-09-28T20:54:43.982Z,12.64
2022-09-28T20:57:18.356Z,12.66
2022-09-28T20:59:49.757Z,12.57
2022-09-28T21:02:20.691Z,12.40
2022-09-28T21:04:50.423Z,12.45
2022-09-28T21:07:19.011Z,12.36
2022-09-28T21:09:47.380Z,12.32
2022-09-28T21:12:16.420Z,12.33
2022-09-28T21:14:44.801Z,12.30
2022-09-28T21:17:13.203Z,12.37
2022-09-28T21:19:41.540Z,12.52
2022-09-28T21:22:11.318Z,12.57
2022-09-28T21:24:39.715Z,12.61
2022-09-28T21:27:08.068Z,12.63
2022-09-28T21:29:36.436Z,12.56
2022-09-28T21:32:06.042Z,12.39
2022-09-28T21:34:35.806Z,12.50
2022-09-28T21:37:04.354Z,12.54
2022-09-28T21:39:34.146Z,12.58
2022-09-28T21:42:02.537Z,12.65
2022-09-28T21:44:31.010Z,12.66
2022-09-28T21:46:59.380Z,12.68
2022-09-28T21:49:27.693Z,12.43
2022-09-28T21:51:56.050Z,12.10
2022-09-28T21:54:24.335Z,12.64
2022-09-28T21:56:54.034Z,12.58
2022-09-28T21:59:22.410Z,12.45
2022-09-28T22:01:50.884Z,12.45
2022-09-28T22:04:19.257Z,12.56
2022-09-28T22:06:47.754Z,12.42
2022-09-28T22:09:16.047Z,11.92
2022-09-28T22:11:44.514Z,12.81
2022-09-28T22:14:14.564Z,12.90
2022-09-28T22:16:43.320Z,12.62
2022-09-28T22:19:11.618Z,12.63
2022-09-28T22:21:40.172Z,12.99
2022-09-28T22:24:08.839Z,12.79
2022-09-28T22:26:39.539Z,12.90
2022-09-28T22:29:09.499Z,12.92
2022-09-28T22:31:41.469Z,12.99
2022-09-28T22:34:11.187Z,12.91
2022-09-28T22:36:39.576Z,12.86
2022-09-28T22:39:08.236Z,12.85
2022-09-28T22:41:36.528Z,12.93
2022-09-28T22:44:05.011Z,12.28
2022-09-28T22:46:33.393Z,13.03
2022-09-28T22:49:03.492Z,13.04
2022-09-28T22:51:32.102Z,13.04
2022-09-28T22:54:01.209Z,13.11
2022-09-28T22:56:30.095Z,13.11
2022-09-28T22:58:58.822Z,12.93
2022-09-28T23:01:29.693Z,12.56
2022-09-28T23:03:59.467Z,12.56
2022-09-28T23:06:30.867Z,12.54
2022-09-28T23:08:59.326Z,12.80
2022-09-28T23:11:28.035Z,12.80
2022-09-28T23:13:59.017Z,12.79
2022-09-28T23:16:28.361Z,12.93
2022-09-28T23:18:57.482Z,12.75
2022-09-28T23:21:29.349Z,12.47
2022-09-28T23:24:01.039Z,12.33
2022-09-28T23:26:31.445Z,12.24
2022-09-28T23:29:00.660Z,12.36
2022-09-28T23:31:31.234Z,12.47
2022-09-28T23:34:01.090Z,12.31
2022-09-28T23:36:31.062Z,12.39
2022-09-28T23:38:59.695Z,12.40
2022-09-28T23:41:28.168Z,12.46
2022-09-28T23:43:56.719Z,12.47
2022-09-28T23:46:25.536Z,12.54
2022-09-28T23:48:54.027Z,12.54
2022-09-28T23:51:22.368Z,12.51
2022-09-28T23:53:52.121Z,12.47
2022-09-28T23:56:21.002Z,12.56
2022-09-28T23:58:49.288Z,12.63
